createdAt,value
2018-02-25T00:02:08.885Z,99423
2018-02-25T00:04:36.457Z,99415
2018-02-25T00:07:04.495Z,99430
2018-02-25T00:09:32.116Z,99427
2018-02-25T00:12:00.457Z,99420
2018-02-25T00:14:28.031Z,99418
2018-02-25T00:16:55.608Z,99426
2018-02-25T00:19:23.983Z,99413
2018-02-25T00:21:52.322Z,99414
2018-02-25T00:24:19.918Z,99412
2018-02-25T00:26:47.496Z,99418
2018-02-25T00:29:15.833Z,99415
2018-02-25T00:31:43.520Z,99412
2018-02-25T00:34:11.909Z,99407
2018-02-25T00:36:40.260Z,99407
2018-02-25T00:39:07.945Z,99408
2018-02-25T00:41:36.332Z,99417
2018-02-25T00:44:05.646Z,99408
2018-02-25T00:46:33.688Z,99405
2018-02-25T00:49:01.366Z,99399
2018-02-25T00:51:29.712Z,99411
2018-02-25T00:53:57.285Z,99399
2018-02-25T00:56:24.864Z,99408
2018-02-25T00:58:53.216Z,99414
2018-02-25T01:01:20.809Z,99409
2018-02-25T01:03:49.287Z,99419
2018-02-25T01:06:17.631Z,99407
2018-02-25T01:08:45.225Z,99410
2018-02-25T01:11:13.603Z,99405
2018-02-25T01:13:41.988Z,99409
2018-02-25T01:16:10.468Z,99413
2018-02-25T01:18:38.851Z,99426
2018-02-25T01:21:07.196Z,99436
2018-02-25T01:23:35.102Z,99444
2018-02-25T01:26:04.588Z,99430
2018-02-25T01:28:32.155Z,99433
2018-02-25T01:30:59.724Z,99437
2018-02-25T01:33:28.076Z,99436
2018-02-25T01:35:55.673Z,99438
2018-02-25T01:38:24.016Z,99429
2018-02-25T01:40:51.701Z,99436
2018-02-25T01:43:20.069Z,99430
2018-02-25T01:45:47.660Z,99438
2018-02-25T01:48:15.243Z,99429
2018-02-25T01:50:54.755Z,99415
2018-02-25T01:53:23.225Z,99419
2018-02-25T01:55:51.609Z,99416
2018-02-25T01:58:19.989Z,99437
2018-02-25T02:00:48.379Z,99429
2018-02-25T02:03:16.753Z,99423
2018-02-25T02:05:45.100Z,99428
2018-02-25T02:08:12.688Z,99423
2018-02-25T02:10:41.035Z,99431
2018-02-25T02:13:08.644Z,99422
2018-02-25T02:15:36.302Z,99429
2018-02-25T02:18:06.029Z,99433
2018-02-25T02:20:34.784Z,99421
2018-02-25T02:23:04.209Z,99418
2018-02-25T02:25:31.797Z,99423
2018-02-25T02:27:59.425Z,99428
2018-02-25T02:30:27.777Z,99424
2018-02-25T02:32:55.360Z,99427
2018-02-25T02:35:22.939Z,99427
2018-02-25T02:37:51.276Z,99427
2018-02-25T02:40:18.836Z,99425
2018-02-25T02:42:47.184Z,99424
2018-02-25T02:45:14.792Z,99418
2018-02-25T02:47:42.357Z,99423
2018-02-25T02:50:09.928Z,99419
2018-02-25T02:52:37.483Z,99423
2018-02-25T02:55:05.812Z,99424
2018-02-25T02:57:33.378Z,99427
2018-02-25T03:00:01.709Z,99423
2018-02-25T03:02:29.274Z,99426
2018-02-25T03:04:57.600Z,99422
2018-02-25T03:07:25.159Z,99425
2018-02-25T03:09:53.483Z,99422
2018-02-25T03:12:21.046Z,99418
2018-02-25T03:14:49.382Z,99428
2018-02-25T03:17:22.969Z,99430
2018-02-25T03:19:51.316Z,99419
2018-02-25T03:22:19.491Z,99422
2018-02-25T03:24:47.830Z,99429
2018-02-25T03:27:15.416Z,99425
2018-02-25T03:29:42.988Z,99423
2018-02-25T03:32:10.554Z,99420
2018-02-25T03:34:38.130Z,99423
2018-02-25T03:37:06.459Z,99426
2018-02-25T03:39:34.020Z,99423
2018-02-25T03:42:01.579Z,99421
2018-02-25T03:44:29.146Z,99421
2018-02-25T03:46:56.713Z,99433
2018-02-25T03:49:24.267Z,99421
2018-02-25T03:51:51.831Z,99418
2018-02-25T03:54:20.158Z,99420
2018-02-25T03:56:47.721Z,99426
2018-02-25T03:59:16.055Z,99425
2018-02-25T04:01:43.629Z,99419
2018-02-25T04:04:11.187Z,99426
2018-02-25T04:06:39.513Z,99428
2018-02-25T04:09:07.079Z,99422
2018-02-25T04:11:35.401Z,99423
2018-02-25T04:14:02.962Z,99423
2018-02-25T04:16:31.288Z,99428
2018-02-25T04:18:58.850Z,99427
2018-02-25T04:21:26.411Z,99425
2018-02-25T04:23:53.965Z,99419
2018-02-25T04:26:21.658Z,99439
2018-02-25T04:28:49.215Z,99418
2018-02-25T04:31:17.548Z,99422
2018-02-25T04:33:45.876Z,99431
2018-02-25T04:36:13.430Z,99428
2018-02-25T04:38:40.990Z,99425
2018-02-25T04:41:08.552Z,99423
2018-02-25T04:43:36.123Z,99425
2018-02-25T04:46:03.683Z,99429
2018-02-25T04:48:32.018Z,99424
2018-02-25T04:50:59.577Z,99430
2018-02-25T04:53:27.908Z,99429
2018-02-25T04:55:55.463Z,99426
2018-02-25T04:58:23.790Z,99434
2018-02-25T05:00:51.346Z,99429
2018-02-25T05:03:19.466Z,99427
2018-02-25T05:05:47.788Z,99428
2018-02-25T05:08:15.359Z,99424
2018-02-25T05:10:42.914Z,99439
2018-02-25T05:13:11.251Z,99431
2018-02-25T05:15:38.817Z,99434
2018-02-25T05:18:06.973Z,99433
2018-02-25T05:20:34.539Z,99443
2018-02-25T05:23:02.873Z,99443
2018-02-25T05:25:30.444Z,99433
2018-02-25T05:27:58.031Z,99444
2018-02-25T05:30:25.602Z,99439
2018-02-25T05:32:53.176Z,99446
2018-02-25T05:35:20.760Z,99445
2018-02-25T05:37:48.324Z,99440
2018-02-25T05:40:16.645Z,99446
2018-02-25T05:42:44.991Z,99457
2018-02-25T05:45:12.561Z,99449
2018-02-25T05:47:40.119Z,99444
2018-02-25T05:50:07.699Z,99447
2018-02-25T05:52:35.270Z,99458
2018-02-25T05:55:02.827Z,99458
2018-02-25T05:57:30.414Z,99447
2018-02-25T05:59:58.824Z,99455
2018-02-25T06:02:27.197Z,99470
2018-02-25T06:04:54.764Z,99461
2018-02-25T06:07:22.330Z,99454
2018-02-25T06:09:49.901Z,99463
2018-02-25T06:12:18.376Z,99466
2018-02-25T06:14:46.758Z,99465
2018-02-25T06:17:14.406Z,99462
2018-02-25T06:19:42.737Z,99454
2018-02-25T06:22:10.327Z,99456
2018-02-25T06:24:37.918Z,99451
2018-02-25T06:27:05.617Z,99454
2018-02-25T06:29:33.191Z,99457
2018-02-25T06:32:00.750Z,99462
2018-02-25T06:34:29.092Z,99457
2018-02-25T06:36:56.662Z,99474
2018-02-25T06:39:24.216Z,99458
2018-02-25T06:41:51.779Z,99466
2018-02-25T06:44:19.334Z,99471
2018-02-25T06:46:46.969Z,99470
2018-02-25T06:49:14.537Z,99470
2018-02-25T06:51:42.090Z,99467
2018-02-25T06:54:09.653Z,99468
2018-02-25T06:56:37.247Z,99459
2018-02-25T06:59:05.748Z,99471
2018-02-25T07:01:34.111Z,99466
2018-02-25T07:04:01.672Z,99467
2018-02-25T07:09:07.557Z,99487
2018-02-25T07:11:35.137Z,99481
2018-02-25T07:14:02.707Z,99481
2018-02-25T07:16:31.167Z,99475
2018-02-25T07:18:59.517Z,99487
2018-02-25T07:21:27.205Z,99477
2018-02-25T07:23:55.021Z,99471
2018-02-25T07:26:22.602Z,99482
2018-02-25T07:28:50.200Z,99483
2018-02-25T07:31:19.017Z,99486
2018-02-25T07:33:47.373Z,99480
2018-02-25T07:36:15.066Z,99489
2018-02-25T07:38:42.651Z,99479
2018-02-25T07:41:11.245Z,99477
2018-02-25T07:43:39.896Z,99488
2018-02-25T07:46:08.347Z,99479
2018-02-25T07:48:36.704Z,99481
2018-02-25T07:51:04.328Z,99483
2018-02-25T07:53:31.902Z,99480
2018-02-25T07:55:59.525Z,99480
2018-02-25T07:58:27.880Z,99484
2018-02-25T08:00:55.471Z,99473
2018-02-25T08:03:23.917Z,99481
2018-02-25T08:05:51.522Z,99493
2018-02-25T08:08:19.889Z,99481
2018-02-25T08:10:48.272Z,99490
2018-02-25T08:13:16.650Z,99485
2018-02-25T08:15:45.017Z,99489
2018-02-25T08:18:12.609Z,99489
2018-02-25T08:20:41.394Z,99487
2018-02-25T08:23:09.655Z,99484
2018-02-25T08:25:37.532Z,99489
2018-02-25T08:28:05.158Z,99490
2018-02-25T08:30:32.757Z,99494
2018-02-25T08:33:00.414Z,99484
2018-02-25T08:35:28.804Z,99482
2018-02-25T08:37:56.389Z,99486
2018-02-25T08:40:23.988Z,99490
2018-02-25T08:42:51.565Z,99489
2018-02-25T08:45:19.148Z,99483
2018-02-25T08:47:47.515Z,99489
2018-02-25T08:50:15.995Z,99491
2018-02-25T08:52:44.579Z,99484
2018-02-25T08:55:12.957Z,99481
2018-02-25T08:57:41.955Z,99481
2018-02-25T09:00:11.471Z,99478
2018-02-25T09:02:39.815Z,99469
2018-02-25T09:05:09.363Z,99458
2018-02-25T09:07:37.025Z,99461
2018-02-25T09:10:04.668Z,99458
2018-02-25T09:12:33.042Z,99472
2018-02-25T09:15:01.419Z,99460
2018-02-25T09:17:29.142Z,99466
2018-02-25T09:19:56.769Z,99479
2018-02-25T09:22:25.149Z,99459
2018-02-25T09:24:53.505Z,99464
2018-02-25T09:27:21.871Z,99458
2018-02-25T09:29:50.382Z,99462
2018-02-25T09:32:17.999Z,99461
2018-02-25T09:34:45.589Z,99456
2018-02-25T09:37:13.486Z,99448
2018-02-25T09:39:41.070Z,99464
2018-02-25T09:42:09.419Z,99463
2018-02-25T09:44:37.990Z,99456
2018-02-25T09:47:05.646Z,99462
2018-02-25T09:49:34.003Z,99462
2018-02-25T09:52:01.637Z,99458
2018-02-25T09:54:29.374Z,99461
2018-02-25T09:56:57.122Z,99450
2018-02-25T09:59:25.473Z,99454
2018-02-25T10:01:53.178Z,99455
2018-02-25T10:04:21.559Z,99446
2018-02-25T10:06:50.012Z,99451
2018-02-25T10:09:17.708Z,99444
2018-02-25T10:11:45.338Z,99454
2018-02-25T10:14:12.993Z,99441
2018-02-25T10:16:41.868Z,99428
2018-02-25T10:19:10.301Z,99449
2018-02-25T10:21:37.932Z,99448
2018-02-25T10:24:05.539Z,99436
2018-02-25T10:26:33.117Z,99438
2018-02-25T10:29:00.748Z,99438
2018-02-25T10:31:28.387Z,99441
2018-02-25T10:33:55.982Z,99433
2018-02-25T10:36:23.585Z,99435
2018-02-25T10:38:51.192Z,99440
2018-02-25T10:41:18.801Z,99434
2018-02-25T10:43:46.510Z,99430
2018-02-25T10:46:14.262Z,99427
2018-02-25T10:48:41.858Z,99425
2018-02-25T10:51:10.811Z,99423
2018-02-25T10:53:38.490Z,99422
2018-02-25T10:56:06.345Z,99425
2018-02-25T10:58:33.942Z,99417
2018-02-25T11:01:07.631Z,99419
2018-02-25T11:03:35.980Z,99418
2018-02-25T11:06:05.917Z,99415
2018-02-25T11:08:35.848Z,99405
2018-02-25T11:11:04.245Z,99411
2018-02-25T11:13:32.569Z,99395
2018-02-25T11:16:00.172Z,99387
2018-02-25T11:18:27.808Z,99394
2018-02-25T11:20:55.375Z,99386
2018-02-25T11:23:23.718Z,99381
2018-02-25T11:25:51.317Z,99371
2018-02-25T11:28:19.745Z,99369
2018-02-25T11:30:47.379Z,99372
2018-02-25T11:33:14.967Z,99370
2018-02-25T11:35:42.563Z,99376
2018-02-25T11:38:10.913Z,99375
2018-02-25T11:40:38.655Z,99364
2018-02-25T11:43:06.530Z,99350
2018-02-25T11:45:34.198Z,99351
2018-02-25T11:48:02.208Z,99351
2018-02-25T11:50:30.694Z,99349
2018-02-25T11:52:58.719Z,99345
2018-02-25T11:55:26.464Z,99358
2018-02-25T11:57:54.210Z,99357
2018-02-25T12:00:21.983Z,99347
2018-02-25T12:02:49.667Z,99357
2018-02-25T12:05:17.708Z,99340
2018-02-25T12:07:46.121Z,99341
2018-02-25T12:10:13.721Z,99351
2018-02-25T12:12:42.815Z,99349
2018-02-25T12:15:11.695Z,99336
2018-02-25T12:17:40.314Z,99329
2018-02-25T12:20:09.336Z,99336
2018-02-25T12:22:36.922Z,99343
2018-02-25T12:25:04.596Z,99354
2018-02-25T12:27:32.203Z,99327
2018-02-25T12:30:00.693Z,99330
2018-02-25T12:32:28.289Z,99317
2018-02-25T12:34:55.922Z,99314
2018-02-25T12:37:23.511Z,99320
2018-02-25T12:39:51.127Z,99322
2018-02-25T12:42:19.523Z,99311
2018-02-25T12:44:47.113Z,99314
2018-02-25T12:47:14.744Z,99310
2018-02-25T12:49:43.328Z,99311
2018-02-25T12:52:11.760Z,99316
2018-02-25T12:54:39.474Z,99313
2018-02-25T12:57:07.828Z,99309
2018-02-25T12:59:35.518Z,99311
2018-02-25T13:02:03.870Z,99314
2018-02-25T13:04:31.468Z,99309
2018-02-25T13:06:59.249Z,99323
2018-02-25T13:09:26.892Z,99308
2018-02-25T13:11:54.637Z,99290
2018-02-25T13:14:22.341Z,99298
2018-02-25T13:16:50.374Z,99309
2018-02-25T13:19:19.782Z,99305
2018-02-25T13:21:48.508Z,99295
2018-02-25T13:24:16.098Z,99296
2018-02-25T13:26:44.766Z,99286
2018-02-25T13:29:12.363Z,99292
2018-02-25T13:31:41.978Z,99299
2018-02-25T13:34:10.687Z,99293
2018-02-25T13:36:39.485Z,99290
2018-02-25T13:39:07.327Z,99293
2018-02-25T13:41:35.701Z,99290
2018-02-25T13:44:03.274Z,99288
2018-02-25T13:46:31.648Z,99279
2018-02-25T13:48:59.987Z,99289
2018-02-25T13:51:27.718Z,99283
2018-02-25T13:53:55.416Z,99286
2018-02-25T13:56:23.136Z,99280
2018-02-25T13:58:50.723Z,99283
2018-02-25T14:01:18.453Z,99284
2018-02-25T14:03:46.793Z,99281
2018-02-25T14:06:14.465Z,99283
2018-02-25T14:08:42.047Z,99282
2018-02-25T14:11:11.778Z,99278
2018-02-25T14:13:40.441Z,99283
2018-02-25T14:16:08.152Z,99275
2018-02-25T14:18:35.820Z,99285
2018-02-25T14:21:03.443Z,99288
2018-02-25T14:23:31.802Z,99277
2018-02-25T14:25:59.425Z,99266
2018-02-25T14:28:27.043Z,99279
2018-02-25T14:30:55.436Z,99282
2018-02-25T14:33:23.019Z,99285
2018-02-25T14:35:50.653Z,99284
2018-02-25T14:38:19.013Z,99277
2018-02-25T14:40:46.597Z,99271
2018-02-25T14:43:14.967Z,99276
2018-02-25T14:45:43.455Z,99276
2018-02-25T14:48:11.122Z,99286
2018-02-25T14:50:40.193Z,99279
2018-02-25T14:53:08.549Z,99281
2018-02-25T14:55:36.115Z,99269
2018-02-25T14:58:03.709Z,99271
2018-02-25T15:00:32.103Z,99271
2018-02-25T15:02:59.758Z,99265
2018-02-25T15:05:28.322Z,99276
2018-02-25T15:07:55.915Z,99267
2018-02-25T15:10:24.494Z,99272
2018-02-25T15:12:52.461Z,99268
2018-02-25T15:15:20.807Z,99259
2018-02-25T15:17:48.553Z,99252
2018-02-25T15:20:16.284Z,99263
2018-02-25T15:22:43.924Z,99254
2018-02-25T15:25:12.357Z,99256
2018-02-25T15:27:39.940Z,99256
2018-02-25T15:30:09.586Z,99259
2018-02-25T15:32:37.181Z,99243
2018-02-25T15:35:04.817Z,99256
2018-02-25T15:37:32.405Z,99248
2018-02-25T15:40:00.058Z,99241
2018-02-25T15:42:27.692Z,99239
2018-02-25T15:44:56.086Z,99236
2018-02-25T15:47:23.714Z,99245
2018-02-25T15:49:51.716Z,99236
2018-02-25T15:52:19.514Z,99248
2018-02-25T15:54:47.120Z,99239
2018-02-25T15:57:15.620Z,99243
2018-02-25T15:59:43.290Z,99243
2018-02-25T16:02:11.684Z,99240
2018-02-25T16:04:39.417Z,99250
2018-02-25T16:07:07.846Z,99243
2018-02-25T16:09:35.438Z,99250
2018-02-25T16:12:03.059Z,99262
2018-02-25T16:14:30.654Z,99250
2018-02-25T16:16:58.261Z,99249
2018-02-25T16:19:25.848Z,99257
2018-02-25T16:21:53.561Z,99250
2018-02-25T16:24:21.346Z,99260
2018-02-25T16:26:48.931Z,99254
2018-02-25T16:29:16.559Z,99258
2018-02-25T16:31:44.222Z,99257
2018-02-25T16:34:11.839Z,99260
2018-02-25T16:36:41.165Z,99268
2018-02-25T16:39:09.371Z,99270
2018-02-25T16:41:37.036Z,99266
2018-02-25T16:44:04.622Z,99274
2018-02-25T16:46:32.368Z,99279
2018-02-25T16:48:59.977Z,99271
2018-02-25T16:51:27.891Z,99278
2018-02-25T16:53:55.470Z,99278
2018-02-25T16:56:23.044Z,99282
2018-02-25T16:58:50.677Z,99283
2018-02-25T17:01:18.271Z,99285
2018-02-25T17:03:45.872Z,99294
2018-02-25T17:06:13.448Z,99291
2018-02-25T17:08:41.801Z,99289
2018-02-25T17:11:09.487Z,99311
2018-02-25T17:13:37.987Z,99307
2018-02-25T17:16:05.646Z,99308
2018-02-25T17:18:34.083Z,99306
2018-02-25T17:21:01.783Z,99317
2018-02-25T17:23:30.251Z,99325
2018-02-25T17:25:58.041Z,99311
2018-02-25T17:28:25.698Z,99328
2018-02-25T17:30:54.078Z,99333
2018-02-25T17:33:22.434Z,99327
2018-02-25T17:35:50.050Z,99332
2018-02-25T17:38:17.682Z,99330
2018-02-25T17:40:46.057Z,99323
2018-02-25T17:43:14.495Z,99335
2018-02-25T17:45:42.082Z,99332
2018-02-25T17:48:10.774Z,99333
2018-02-25T17:50:38.358Z,99347
2018-02-25T17:53:06.032Z,99338
2018-02-25T17:55:33.806Z,99328
2018-02-25T17:58:06.642Z,99342
2018-02-25T18:00:28.937Z,99345
2018-02-25T18:02:56.590Z,99340
2018-02-25T18:05:24.432Z,99334
2018-02-25T18:07:52.917Z,99344
2018-02-25T18:10:20.641Z,99336
2018-02-25T18:12:48.345Z,99341
2018-02-25T18:15:15.952Z,99345
2018-02-25T18:17:43.536Z,99345
2018-02-25T18:20:11.140Z,99348
2018-02-25T18:22:39.411Z,99343
2018-02-25T18:25:07.004Z,99343
2018-02-25T18:27:34.740Z,99341
2018-02-25T18:30:02.388Z,99343
2018-02-25T18:32:30.770Z,99336
2018-02-25T18:34:59.120Z,99346
2018-02-25T18:37:26.820Z,99341
2018-02-25T18:39:54.435Z,99326
2018-02-25T18:42:22.127Z,99339
2018-02-25T18:44:50.525Z,99341
2018-02-25T18:47:18.199Z,99333
2018-02-25T18:49:47.536Z,99331
2018-02-25T18:52:16.130Z,99338
2018-02-25T18:54:43.734Z,99345
2018-02-25T18:57:11.769Z,99342
2018-02-25T18:59:40.272Z,99332
2018-02-25T19:02:08.640Z,99340
2018-02-25T19:04:36.328Z,99342
2018-02-25T19:07:04.692Z,99346
2018-02-25T19:09:32.584Z,99350
2018-02-25T19:12:00.373Z,99359
2018-02-25T19:14:27.970Z,99357
2018-02-25T19:16:55.647Z,99356
2018-02-25T19:19:24.130Z,99357
2018-02-25T19:21:51.787Z,99348
2018-02-25T19:24:19.668Z,99347
2018-02-25T19:26:48.064Z,99359
2018-02-25T19:29:16.412Z,99351
2018-02-25T19:31:44.052Z,99361
2018-02-25T19:34:11.811Z,99358
2018-02-25T19:36:45.417Z,99359
2018-02-25T19:39:18.556Z,99365
2018-02-25T19:41:53.087Z,99355
2018-02-25T19:44:20.736Z,99342
2018-02-25T19:46:49.133Z,99352
2018-02-25T19:49:17.615Z,99366
2018-02-25T19:51:45.482Z,99346
2018-02-25T19:54:13.064Z,99363
2018-02-25T19:56:41.880Z,99364
2018-02-25T20:05:06.777Z,99366
2018-02-25T20:07:34.467Z,99354
2018-02-25T20:10:02.123Z,99366
2018-02-25T20:12:29.799Z,99355
2018-02-25T20:14:57.405Z,99353
2018-02-25T20:17:25.809Z,99364
2018-02-25T20:19:53.456Z,99351
2018-02-25T20:22:22.067Z,99356
2018-02-25T20:24:49.795Z,99355
2018-02-25T20:27:17.567Z,99351
2018-02-25T20:29:46.845Z,99354
2018-02-25T20:32:14.464Z,99351
2018-02-25T20:34:42.216Z,99347
2018-02-25T20:37:09.967Z,99353
2018-02-25T20:39:37.676Z,99357
2018-02-25T20:42:05.291Z,99347
2018-02-25T20:44:33.694Z,99365
2018-02-25T20:47:01.279Z,99356
2018-02-25T20:49:28.991Z,99354
2018-02-25T20:51:57.373Z,99350
2018-02-25T20:54:25.752Z,99351
2018-02-25T20:56:54.236Z,99353
2018-02-25T20:59:22.616Z,99351
2018-02-25T21:01:50.968Z,99356
2018-02-25T21:04:18.661Z,99359
2018-02-25T21:06:47.126Z,99348
2018-02-25T21:09:14.704Z,99348
2018-02-25T21:11:43.315Z,99345
2018-02-25T21:14:11.638Z,99345
2018-02-25T21:16:39.408Z,99345
2018-02-25T21:19:07.060Z,99349
2018-02-25T21:21:34.863Z,99345
2018-02-25T21:24:03.210Z,99344
2018-02-25T21:26:30.790Z,99348
2018-02-25T21:28:59.292Z,99350
2018-02-25T21:36:21.154Z,99358
2018-02-25T21:38:49.515Z,99351
2018-02-25T21:41:17.205Z,99353
2018-02-25T21:43:44.892Z,99349
2018-02-25T21:46:12.518Z,99356
2018-02-25T21:48:41.509Z,99349
2018-02-25T21:51:09.780Z,99357
2018-02-25T21:53:41.346Z,99356
2018-02-25T21:56:15.582Z,99351
2018-02-25T21:58:48.935Z,99349
2018-02-25T22:01:22.428Z,99354
2018-02-25T22:03:56.680Z,99365
2018-02-25T22:06:24.353Z,99357
2018-02-25T22:08:52.833Z,99354
2018-02-25T22:11:20.589Z,99366
2018-02-25T22:13:48.932Z,99360
2018-02-25T22:16:16.541Z,99362
2018-02-25T22:18:44.166Z,99357
2018-02-25T22:21:12.584Z,99353
2018-02-25T22:23:40.874Z,99359
2018-02-25T22:26:08.477Z,99356
2018-02-25T22:28:36.062Z,99348
2018-02-25T22:31:03.765Z,99365
2018-02-25T22:33:31.346Z,99356
2018-02-25T22:35:58.951Z,99357
2018-02-25T22:38:26.558Z,99363
2018-02-25T22:40:54.139Z,99356
2018-02-25T22:43:21.730Z,99362
2018-02-25T22:45:49.401Z,99359
2018-02-25T22:48:17.752Z,99365
2018-02-25T22:50:45.464Z,99370
2018-02-25T22:53:13.097Z,99365
2018-02-25T22:55:41.440Z,99373
2018-02-25T22:58:09.564Z,99373
2018-02-25T23:00:37.235Z,99372
2018-02-25T23:03:04.878Z,99360
2018-02-25T23:05:33.294Z,99354
2018-02-25T23:08:00.940Z,99371
2018-02-25T23:10:28.538Z,99372
2018-02-25T23:12:56.127Z,99373
2018-02-25T23:15:23.723Z,99368
2018-02-25T23:17:51.331Z,99377
2018-02-25T23:20:18.933Z,99368
2018-02-25T23:22:47.314Z,99370
2018-02-25T23:25:14.967Z,99371
2018-02-25T23:27:43.352Z,99363
2018-02-25T23:30:11.705Z,99352
2018-02-25T23:32:40.134Z,99366
2018-02-25T23:35:07.773Z,99362
2018-02-25T23:37:35.451Z,99357
2018-02-25T23:40:03.098Z,99350
2018-02-25T23:42:31.499Z,99361
2018-02-25T23:44:59.074Z,99366
2018-02-25T23:47:26.634Z,99350
2018-02-25T23:49:54.203Z,99346
2018-02-25T23:52:21.759Z,99358
2018-02-25T23:54:49.318Z,99352
2018-02-25T23:57:16.898Z,99356
2018-02-25T23:59:44.480Z,99352
